sensor_id;sensor_type;location;lat;lon;timestamp;temperature;humidity
6260;DHT22;3163;51.516;4.000;2023-07-22T00:00:44;21.30;99.90
6260;DHT22;3163;51.516;4.000;2023-07-22T00:03:11;21.30;99.90
6260;DHT22;3163;51.516;4.000;2023-07-22T00:05:36;21.20;99.90
6260;DHT22;3163;51.516;4.000;2023-07-22T00:08:02;21.10;99.90
6260;DHT22;3163;51.516;4.000;2023-07-22T00:10:28;21.00;99.90
6260;DHT22;3163;51.516;4.000;2023-07-22T00:12:53;21.10;99.90
6260;DHT22;3163;51.516;4.000;2023-07-22T00:15:19;21.20;99.90
6260;DHT22;3163;51.516;4.000;2023-07-22T00:17:46;21.20;99.90
6260;DHT22;3163;51.516;4.000;2023-07-22T00:20:12;21.20;99.90
6260;DHT22;3163;51.516;4.000;2023-07-22T00:22:40;21.20;99.90
6260;DHT22;3163;51.516;4.000;2023-07-22T00:25:10;21.20;99.90
6260;DHT22;3163;51.516;4.000;2023-07-22T00:27:41;21.10;99.90
6260;DHT22;3163;51.516;4.000;2023-07-22T00:30:07;21.10;99.90
6260;DHT22;3163;51.516;4.000;2023-07-22T00:32:33;21.10;99.90
6260;DHT22;3163;51.516;4.000;2023-07-22T00:34:59;21.00;99.90
6260;DHT22;3163;51.516;4.000;2023-07-22T00:37:24;20.90;99.90
6260;DHT22;3163;51.516;4.000;2023-07-22T00:39:51;21.00;99.90
6260;DHT22;3163;51.516;4.000;2023-07-22T00:42:16;20.90;99.90
6260;DHT22;3163;51.516;4.000;2023-07-22T00:44:42;21.00;99.90
6260;DHT22;3163;51.516;4.000;2023-07-22T00:47:08;21.00;99.90
6260;DHT22;3163;51.516;4.000;2023-07-22T00:49:35;20.90;99.90
6260;DHT22;3163;51.516;4.000;2023-07-22T00:52:02;20.90;99.90
6260;DHT22;3163;51.516;4.000;2023-07-22T00:54:28;21.00;99.90
6260;DHT22;3163;51.516;4.000;2023-07-22T00:56:54;21.00;99.90
6260;DHT22;3163;51.516;4.000;2023-07-22T00:59:21;20.90;99.90
6260;DHT22;3163;51.516;4.000;2023-07-22T01:01:47;21.00;99.90
6260;DHT22;3163;51.516;4.000;2023-07-22T01:04:15;20.90;99.90
6260;DHT22;3163;51.516;4.000;2023-07-22T01:06:42;21.00;99.90
6260;DHT22;3163;51.516;4.000;2023-07-22T01:09:09;20.90;99.90
6260;DHT22;3163;51.516;4.000;2023-07-22T01:11:35;20.90;99.90
6260;DHT22;3163;51.516;4.000;2023-07-22T01:14:00;20.90;99.90
6260;DHT22;3163;51.516;4.000;2023-07-22T01:16:27;20.90;99.90
6260;DHT22;3163;51.516;4.000;2023-07-22T01:18:54;20.90;99.90
6260;DHT22;3163;51.516;4.000;2023-07-22T01:21:22;20.80;99.90
6260;DHT22;3163;51.516;4.000;2023-07-22T01:23:49;20.80;99.90
6260;DHT22;3163;51.516;4.000;2023-07-22T01:26:15;20.70;99.90
6260;DHT22;3163;51.516;4.000;2023-07-22T01:28:41;20.70;99.90
6260;DHT22;3163;51.516;4.000;2023-07-22T01:31:07;20.70;99.90
6260;DHT22;3163;51.516;4.000;2023-07-22T01:33:32;20.60;99.90
6260;DHT22;3163;51.516;4.000;2023-07-22T01:35:59;20.60;99.90
6260;DHT22;3163;51.516;4.000;2023-07-22T01:38:24;20.80;99.90
6260;DHT22;3163;51.516;4.000;2023-07-22T01:40:50;20.70;99.90
6260;DHT22;3163;51.516;4.000;2023-07-22T01:43:15;20.70;99.90
6260;DHT22;3163;51.516;4.000;2023-07-22T01:45:41;20.60;99.90
6260;DHT22;3163;51.516;4.000;2023-07-22T01:48:08;20.60;99.90
6260;DHT22;3163;51.516;4.000;2023-07-22T01:50:33;20.50;99.90
6260;DHT22;3163;51.516;4.000;2023-07-22T01:52:59;20.50;99.90
6260;DHT22;3163;51.516;4.000;2023-07-22T01:55:24;20.40;99.90
6260;DHT22;3163;51.516;4.000;2023-07-22T01:57:51;20.30;99.90
6260;DHT22;3163;51.516;4.000;2023-07-22T02:00:16;20.30;99.90
6260;DHT22;3163;51.516;4.000;2023-07-22T02:02:42;20.30;99.90
6260;DHT22;3163;51.516;4.000;2023-07-22T02:05:08;20.40;99.90
6260;DHT22;3163;51.516;4.000;2023-07-22T02:07:37;20.50;99.90
6260;DHT22;3163;51.516;4.000;2023-07-22T02:10:03;20.40;99.90
6260;DHT22;3163;51.516;4.000;2023-07-22T02:12:29;20.50;99.90
6260;DHT22;3163;51.516;4.000;2023-07-22T02:14:55;20.50;99.90
6260;DHT22;3163;51.516;4.000;2023-07-22T02:17:21;20.50;99.90
6260;DHT22;3163;51.516;4.000;2023-07-22T02:19:46;20.30;99.90
6260;DHT22;3163;51.516;4.000;2023-07-22T02:22:12;20.40;99.90
6260;DHT22;3163;51.516;4.000;2023-07-22T02:24:38;20.50;99.90
6260;DHT22;3163;51.516;4.000;2023-07-22T02:27:04;20.40;99.90
6260;DHT22;3163;51.516;4.000;2023-07-22T02:29:30;20.40;99.90
6260;DHT22;3163;51.516;4.000;2023-07-22T02:31:58;20.40;99.90
6260;DHT22;3163;51.516;4.000;2023-07-22T02:34:24;20.30;99.90
6260;DHT22;3163;51.516;4.000;2023-07-22T02:36:49;20.30;99.90
6260;DHT22;3163;51.516;4.000;2023-07-22T02:39:15;20.30;99.90
6260;DHT22;3163;51.516;4.000;2023-07-22T02:41:41;20.40;99.90
6260;DHT22;3163;51.516;4.000;2023-07-22T02:44:06;20.40;99.90
6260;DHT22;3163;51.516;4.000;2023-07-22T02:46:32;20.30;99.90
6260;DHT22;3163;51.516;4.000;2023-07-22T02:48:58;20.30;99.90
6260;DHT22;3163;51.516;4.000;2023-07-22T02:51:26;20.30;99.90
6260;DHT22;3163;51.516;4.000;2023-07-22T02:53:52;20.20;99.90
6260;DHT22;3163;51.516;4.000;2023-07-22T02:56:18;20.20;99.90
6260;DHT22;3163;51.516;4.000;2023-07-22T02:58:43;20.20;99.90
6260;DHT22;3163;51.516;4.000;2023-07-22T03:01:09;20.20;99.90
6260;DHT22;3163;51.516;4.000;2023-07-22T03:03:36;20.30;99.90
6260;DHT22;3163;51.516;4.000;2023-07-22T03:06:02;20.30;99.90
6260;DHT22;3163;51.516;4.000;2023-07-22T03:08:29;20.20;99.90
6260;DHT22;3163;51.516;4.000;2023-07-22T03:10:55;20.30;99.90
6260;DHT22;3163;51.516;4.000;2023-07-22T03:13:21;20.30;99.90
6260;DHT22;3163;51.516;4.000;2023-07-22T03:15:46;20.20;99.90
6260;DHT22;3163;51.516;4.000;2023-07-22T03:18:12;20.10;99.90
6260;DHT22;3163;51.516;4.000;2023-07-22T03:20:38;20.10;99.90
6260;DHT22;3163;51.516;4.000;2023-07-22T03:23:05;20.10;99.90
6260;DHT22;3163;51.516;4.000;2023-07-22T03:25:32;20.10;99.90
6260;DHT22;3163;51.516;4.000;2023-07-22T03:28:02;20.10;99.90
6260;DHT22;3163;51.516;4.000;2023-07-22T03:30:28;20.20;99.90
6260;DHT22;3163;51.516;4.000;2023-07-22T03:32:54;20.20;99.90
6260;DHT22;3163;51.516;4.000;2023-07-22T03:35:19;20.20;99.90
6260;DHT22;3163;51.516;4.000;2023-07-22T03:37:45;20.10;99.90
6260;DHT22;3163;51.516;4.000;2023-07-22T03:40:11;20.20;99.90
6260;DHT22;3163;51.516;4.000;2023-07-22T03:42:43;20.10;99.90
6260;DHT22;3163;51.516;4.000;2023-07-22T03:45:09;20.00;99.90
6260;DHT22;3163;51.516;4.000;2023-07-22T03:47:35;20.10;99.90
6260;DHT22;3163;51.516;4.000;2023-07-22T03:50:01;20.20;99.90
6260;DHT22;3163;51.516;4.000;2023-07-22T03:52:27;20.30;99.90
6260;DHT22;3163;51.516;4.000;2023-07-22T03:54:53;20.20;99.90
6260;DHT22;3163;51.516;4.000;2023-07-22T03:57:18;20.30;99.90
6260;DHT22;3163;51.516;4.000;2023-07-22T03:59:44;20.20;99.90
6260;DHT22;3163;51.516;4.000;2023-07-22T04:02:09;20.20;99.90
6260;DHT22;3163;51.516;4.000;2023-07-22T04:04:35;20.20;99.90
6260;DHT22;3163;51.516;4.000;2023-07-22T04:07:00;20.20;99.90
6260;DHT22;3163;51.516;4.000;2023-07-22T04:09:27;20.10;99.90
6260;DHT22;3163;51.516;4.000;2023-07-22T04:11:53;20.10;99.90
6260;DHT22;3163;51.516;4.000;2023-07-22T04:14:18;20.20;99.90
6260;DHT22;3163;51.516;4.000;2023-07-22T04:16:44;20.10;99.90
6260;DHT22;3163;51.516;4.000;2023-07-22T04:19:10;20.20;99.90
6260;DHT22;3163;51.516;4.000;2023-07-22T04:21:35;20.20;99.90
6260;DHT22;3163;51.516;4.000;2023-07-22T04:24:01;20.20;99.90
6260;DHT22;3163;51.516;4.000;2023-07-22T04:26:27;20.20;99.90
6260;DHT22;3163;51.516;4.000;2023-07-22T04:28:53;20.20;99.90
6260;DHT22;3163;51.516;4.000;2023-07-22T04:31:19;20.20;99.90
6260;DHT22;3163;51.516;4.000;2023-07-22T04:33:44;20.30;99.90
6260;DHT22;3163;51.516;4.000;2023-07-22T04:36:10;20.30;99.90
6260;DHT22;3163;51.516;4.000;2023-07-22T04:38:36;20.20;99.90
6260;DHT22;3163;51.516;4.000;2023-07-22T04:41:03;20.30;99.90
6260;DHT22;3163;51.516;4.000;2023-07-22T04:43:30;20.40;99.90
6260;DHT22;3163;51.516;4.000;2023-07-22T04:45:56;20.40;99.90
6260;DHT22;3163;51.516;4.000;2023-07-22T04:48:21;20.50;99.90
6260;DHT22;3163;51.516;4.000;2023-07-22T04:50:50;20.50;99.90
6260;DHT22;3163;51.516;4.000;2023-07-22T04:53:18;20.50;99.90
6260;DHT22;3163;51.516;4.000;2023-07-22T04:55:44;20.60;99.90
6260;DHT22;3163;51.516;4.000;2023-07-22T04:58:10;20.60;99.90
6260;DHT22;3163;51.516;4.000;2023-07-22T05:00:38;20.60;99.90
6260;DHT22;3163;51.516;4.000;2023-07-22T05:03:04;20.60;99.90
6260;DHT22;3163;51.516;4.000;2023-07-22T05:07:56;20.70;99.90
6260;DHT22;3163;51.516;4.000;2023-07-22T05:10:22;20.70;99.90
6260;DHT22;3163;51.516;4.000;2023-07-22T05:12:48;20.70;99.90
6260;DHT22;3163;51.516;4.000;2023-07-22T05:15:14;20.80;99.90
6260;DHT22;3163;51.516;4.000;2023-07-22T05:17:40;20.80;99.90
6260;DHT22;3163;51.516;4.000;2023-07-22T05:20:06;20.90;99.90
6260;DHT22;3163;51.516;4.000;2023-07-22T05:22:35;21.10;99.90
6260;DHT22;3163;51.516;4.000;2023-07-22T05:25:01;21.00;99.90
6260;DHT22;3163;51.516;4.000;2023-07-22T05:27:27;21.10;99.90
6260;DHT22;3163;51.516;4.000;2023-07-22T05:29:52;21.00;99.90
6260;DHT22;3163;51.516;4.000;2023-07-22T05:32:18;21.00;99.90
6260;DHT22;3163;51.516;4.000;2023-07-22T05:34:43;21.10;99.90
6260;DHT22;3163;51.516;4.000;2023-07-22T05:37:09;21.10;99.90
6260;DHT22;3163;51.516;4.000;2023-07-22T05:39:34;21.10;99.90
6260;DHT22;3163;51.516;4.000;2023-07-22T05:42:00;21.10;99.90
6260;DHT22;3163;51.516;4.000;2023-07-22T05:44:26;21.20;99.90
6260;DHT22;3163;51.516;4.000;2023-07-22T05:46:51;21.30;99.90
6260;DHT22;3163;51.516;4.000;2023-07-22T05:49:17;21.30;99.90
6260;DHT22;3163;51.516;4.000;2023-07-22T05:51:42;21.30;99.90
6260;DHT22;3163;51.516;4.000;2023-07-22T05:54:08;21.30;99.90
6260;DHT22;3163;51.516;4.000;2023-07-22T05:56:34;21.30;99.90
6260;DHT22;3163;51.516;4.000;2023-07-22T05:58:59;21.30;99.90
6260;DHT22;3163;51.516;4.000;2023-07-22T06:01:25;21.10;99.90
6260;DHT22;3163;51.516;4.000;2023-07-22T06:03:51;21.30;99.90
6260;DHT22;3163;51.516;4.000;2023-07-22T06:06:16;21.30;99.90
6260;DHT22;3163;51.516;4.000;2023-07-22T06:08:42;21.40;99.90
6260;DHT22;3163;51.516;4.000;2023-07-22T06:11:08;21.50;99.90
6260;DHT22;3163;51.516;4.000;2023-07-22T06:13:33;21.40;99.90
6260;DHT22;3163;51.516;4.000;2023-07-22T06:15:59;21.50;99.90
6260;DHT22;3163;51.516;4.000;2023-07-22T06:18:25;21.50;99.90
6260;DHT22;3163;51.516;4.000;2023-07-22T06:20:50;21.60;99.90
6260;DHT22;3163;51.516;4.000;2023-07-22T06:23:16;21.50;99.90
6260;DHT22;3163;51.516;4.000;2023-07-22T06:25:42;21.50;99.90
6260;DHT22;3163;51.516;4.000;2023-07-22T06:28:08;21.50;99.90
6260;DHT22;3163;51.516;4.000;2023-07-22T06:30:33;21.40;99.90
6260;DHT22;3163;51.516;4.000;2023-07-22T06:32:59;21.40;99.90
6260;DHT22;3163;51.516;4.000;2023-07-22T06:35:24;21.50;99.90
6260;DHT22;3163;51.516;4.000;2023-07-22T06:37:50;21.60;99.90
6260;DHT22;3163;51.516;4.000;2023-07-22T06:40:16;21.60;99.90
6260;DHT22;3163;51.516;4.000;2023-07-22T06:42:41;21.60;99.90
6260;DHT22;3163;51.516;4.000;2023-07-22T06:45:07;21.60;99.90
6260;DHT22;3163;51.516;4.000;2023-07-22T06:47:33;21.70;99.90
6260;DHT22;3163;51.516;4.000;2023-07-22T06:50:00;21.70;99.90
6260;DHT22;3163;51.516;4.000;2023-07-22T06:52:25;21.50;99.90
6260;DHT22;3163;51.516;4.000;2023-07-22T06:54:51;21.50;99.90
6260;DHT22;3163;51.516;4.000;2023-07-22T06:57:17;21.50;99.90
6260;DHT22;3163;51.516;4.000;2023-07-22T06:59:42;21.70;99.90
6260;DHT22;3163;51.516;4.000;2023-07-22T07:02:08;21.70;99.90
6260;DHT22;3163;51.516;4.000;2023-07-22T07:04:34;21.70;99.90
6260;DHT22;3163;51.516;4.000;2023-07-22T07:06:59;21.80;99.90
6260;DHT22;3163;51.516;4.000;2023-07-22T07:09:25;21.90;99.90
6260;DHT22;3163;51.516;4.000;2023-07-22T07:11:51;21.90;99.90
6260;DHT22;3163;51.516;4.000;2023-07-22T07:14:17;21.90;99.90
6260;DHT22;3163;51.516;4.000;2023-07-22T07:16:43;22.00;99.90
6260;DHT22;3163;51.516;4.000;2023-07-22T07:19:09;21.90;99.90
6260;DHT22;3163;51.516;4.000;2023-07-22T07:21:35;21.90;99.90
6260;DHT22;3163;51.516;4.000;2023-07-22T07:24:01;21.90;99.90
6260;DHT22;3163;51.516;4.000;2023-07-22T07:26:27;21.90;99.90
6260;DHT22;3163;51.516;4.000;2023-07-22T07:28:53;21.90;99.90
6260;DHT22;3163;51.516;4.000;2023-07-22T07:31:19;22.10;99.90
6260;DHT22;3163;51.516;4.000;2023-07-22T07:33:45;22.00;99.90
6260;DHT22;3163;51.516;4.000;2023-07-22T07:36:11;21.20;99.90
6260;DHT22;3163;51.516;4.000;2023-07-22T07:38:36;21.00;99.90
6260;DHT22;3163;51.516;4.000;2023-07-22T07:41:05;20.40;99.90
6260;DHT22;3163;51.516;4.000;2023-07-22T07:43:34;20.00;99.90
6260;DHT22;3163;51.516;4.000;2023-07-22T07:48:44;20.10;99.90
6260;DHT22;3163;51.516;4.000;2023-07-22T07:51:11;20.40;99.90
6260;DHT22;3163;51.516;4.000;2023-07-22T07:53:37;20.10;99.90
6260;DHT22;3163;51.516;4.000;2023-07-22T07:56:03;20.30;99.90
6260;DHT22;3163;51.516;4.000;2023-07-22T07:58:28;19.90;99.90
6260;DHT22;3163;51.516;4.000;2023-07-22T08:00:54;19.90;99.90
6260;DHT22;3163;51.516;4.000;2023-07-22T08:03:20;20.10;99.90
6260;DHT22;3163;51.516;4.000;2023-07-22T08:05:46;20.40;99.90
6260;DHT22;3163;51.516;4.000;2023-07-22T08:08:11;20.30;99.90
6260;DHT22;3163;51.516;4.000;2023-07-22T08:10:37;20.50;99.90
6260;DHT22;3163;51.516;4.000;2023-07-22T08:13:04;20.70;99.90
6260;DHT22;3163;51.516;4.000;2023-07-22T08:15:30;21.00;99.90
6260;DHT22;3163;51.516;4.000;2023-07-22T08:17:55;20.70;99.90
6260;DHT22;3163;51.516;4.000;2023-07-22T08:20:21;21.30;99.90
6260;DHT22;3163;51.516;4.000;2023-07-22T08:22:46;21.10;99.90
6260;DHT22;3163;51.516;4.000;2023-07-22T08:25:12;20.90;99.90
6260;DHT22;3163;51.516;4.000;2023-07-22T08:27:38;21.20;99.90
6260;DHT22;3163;51.516;4.000;2023-07-22T08:30:04;20.50;99.90
6260;DHT22;3163;51.516;4.000;2023-07-22T08:32:30;20.70;99.90
6260;DHT22;3163;51.516;4.000;2023-07-22T08:34:55;20.70;99.90
6260;DHT22;3163;51.516;4.000;2023-07-22T08:37:21;20.90;99.90
6260;DHT22;3163;51.516;4.000;2023-07-22T08:39:47;21.30;99.90
6260;DHT22;3163;51.516;4.000;2023-07-22T08:42:13;21.30;99.90
6260;DHT22;3163;51.516;4.000;2023-07-22T08:44:43;21.60;99.90
6260;DHT22;3163;51.516;4.000;2023-07-22T08:47:15;21.20;99.90
6260;DHT22;3163;51.516;4.000;2023-07-22T08:49:46;20.90;99.90
6260;DHT22;3163;51.516;4.000;2023-07-22T08:52:14;21.00;99.90
6260;DHT22;3163;51.516;4.000;2023-07-22T08:54:41;21.30;99.90
6260;DHT22;3163;51.516;4.000;2023-07-22T08:57:08;21.50;99.90
6260;DHT22;3163;51.516;4.000;2023-07-22T08:59:35;21.70;99.90
6260;DHT22;3163;51.516;4.000;2023-07-22T09:02:01;21.30;99.90
6260;DHT22;3163;51.516;4.000;2023-07-22T09:04:27;21.30;99.90
6260;DHT22;3163;51.516;4.000;2023-07-22T09:06:54;21.40;99.90
6260;DHT22;3163;51.516;4.000;2023-07-22T09:09:21;22.00;99.90
6260;DHT22;3163;51.516;4.000;2023-07-22T09:11:48;22.30;99.90
6260;DHT22;3163;51.516;4.000;2023-07-22T09:14:16;22.40;99.90
6260;DHT22;3163;51.516;4.000;2023-07-22T09:16:44;22.90;99.90
6260;DHT22;3163;51.516;4.000;2023-07-22T09:19:09;23.00;99.90
6260;DHT22;3163;51.516;4.000;2023-07-22T09:21:35;22.80;99.90
6260;DHT22;3163;51.516;4.000;2023-07-22T09:24:23;22.90;99.90
6260;DHT22;3163;51.516;4.000;2023-07-22T09:26:50;23.30;99.90
6260;DHT22;3163;51.516;4.000;2023-07-22T09:29:16;22.90;99.90
6260;DHT22;3163;51.516;4.000;2023-07-22T09:31:52;22.70;99.90
6260;DHT22;3163;51.516;4.000;2023-07-22T09:34:18;22.80;99.90
6260;DHT22;3163;51.516;4.000;2023-07-22T09:36:58;22.50;99.90
6260;DHT22;3163;51.516;4.000;2023-07-22T09:39:26;22.30;99.90
6260;DHT22;3163;51.516;4.000;2023-07-22T09:41:52;22.20;99.90
6260;DHT22;3163;51.516;4.000;2023-07-22T09:44:22;22.40;99.90
6260;DHT22;3163;51.516;4.000;2023-07-22T09:46:49;22.50;99.90
6260;DHT22;3163;51.516;4.000;2023-07-22T09:49:17;22.50;99.90
6260;DHT22;3163;51.516;4.000;2023-07-22T09:51:43;22.30;99.90
6260;DHT22;3163;51.516;4.000;2023-07-22T09:54:09;22.30;99.90
6260;DHT22;3163;51.516;4.000;2023-07-22T09:56:48;22.20;99.90
6260;DHT22;3163;51.516;4.000;2023-07-22T09:59:16;22.40;99.90
6260;DHT22;3163;51.516;4.000;2023-07-22T10:01:43;22.10;99.90
6260;DHT22;3163;51.516;4.000;2023-07-22T10:04:15;21.90;99.90
6260;DHT22;3163;51.516;4.000;2023-07-22T10:06:43;21.60;99.90
6260;DHT22;3163;51.516;4.000;2023-07-22T10:09:10;22.10;99.90
6260;DHT22;3163;51.516;4.000;2023-07-22T10:11:37;22.40;99.90
6260;DHT22;3163;51.516;4.000;2023-07-22T10:14:05;22.50;99.90
6260;DHT22;3163;51.516;4.000;2023-07-22T10:16:31;22.30;99.90
6260;DHT22;3163;51.516;4.000;2023-07-22T10:18:59;21.90;99.90
6260;DHT22;3163;51.516;4.000;2023-07-22T10:21:25;22.40;99.90
6260;DHT22;3163;51.516;4.000;2023-07-22T10:23:51;22.20;99.90
6260;DHT22;3163;51.516;4.000;2023-07-22T10:26:20;21.90;99.90
6260;DHT22;3163;51.516;4.000;2023-07-22T10:28:46;21.70;99.90
6260;DHT22;3163;51.516;4.000;2023-07-22T10:31:16;21.90;99.90
6260;DHT22;3163;51.516;4.000;2023-07-22T10:33:47;21.70;99.90
6260;DHT22;3163;51.516;4.000;2023-07-22T10:36:15;22.10;99.90
6260;DHT22;3163;51.516;4.000;2023-07-22T10:38:41;21.80;99.90
6260;DHT22;3163;51.516;4.000;2023-07-22T10:41:15;21.80;99.90
6260;DHT22;3163;51.516;4.000;2023-07-22T10:43:43;22.10;99.90
6260;DHT22;3163;51.516;4.000;2023-07-22T10:46:37;22.00;99.90
6260;DHT22;3163;51.516;4.000;2023-07-22T10:49:16;21.60;99.90
6260;DHT22;3163;51.516;4.000;2023-07-22T10:51:47;21.90;99.90
6260;DHT22;3163;51.516;4.000;2023-07-22T10:54:14;22.00;99.90
6260;DHT22;3163;51.516;4.000;2023-07-22T10:56:45;21.80;99.90
6260;DHT22;3163;51.516;4.000;2023-07-22T10:59:12;22.00;99.90
6260;DHT22;3163;51.516;4.000;2023-07-22T11:01:39;22.30;99.90
6260;DHT22;3163;51.516;4.000;2023-07-22T11:12:05;22.00;99.90
6260;DHT22;3163;51.516;4.000;2023-07-22T11:14:38;22.20;99.90
6260;DHT22;3163;51.516;4.000;2023-07-22T11:17:05;21.90;99.90
6260;DHT22;3163;51.516;4.000;2023-07-22T11:19:33;21.80;99.90
6260;DHT22;3163;51.516;4.000;2023-07-22T11:21:59;21.70;99.90
6260;DHT22;3163;51.516;4.000;2023-07-22T11:24:25;21.60;99.90
6260;DHT22;3163;51.516;4.000;2023-07-22T11:26:52;21.60;99.90
6260;DHT22;3163;51.516;4.000;2023-07-22T11:29:18;21.50;99.90
6260;DHT22;3163;51.516;4.000;2023-07-22T11:31:46;21.60;99.90
6260;DHT22;3163;51.516;4.000;2023-07-22T11:34:13;21.60;99.90
6260;DHT22;3163;51.516;4.000;2023-07-22T11:36:40;21.60;99.90
6260;DHT22;3163;51.516;4.000;2023-07-22T11:39:07;21.50;99.90
6260;DHT22;3163;51.516;4.000;2023-07-22T11:41:34;21.50;99.90
6260;DHT22;3163;51.516;4.000;2023-07-22T11:44:01;21.60;99.90
6260;DHT22;3163;51.516;4.000;2023-07-22T11:46:27;21.50;99.90
6260;DHT22;3163;51.516;4.000;2023-07-22T11:48:55;21.50;99.90
6260;DHT22;3163;51.516;4.000;2023-07-22T11:51:22;21.50;99.90
6260;DHT22;3163;51.516;4.000;2023-07-22T11:53:49;21.50;99.90
6260;DHT22;3163;51.516;4.000;2023-07-22T11:56:33;21.60;99.90
6260;DHT22;3163;51.516;4.000;2023-07-22T11:58:59;21.20;99.90
6260;DHT22;3163;51.516;4.000;2023-07-22T12:01:32;21.70;99.90
6260;DHT22;3163;51.516;4.000;2023-07-22T12:03:58;21.70;99.90
6260;DHT22;3163;51.516;4.000;2023-07-22T12:06:27;21.90;99.90
6260;DHT22;3163;51.516;4.000;2023-07-22T12:08:53;22.00;99.90
6260;DHT22;3163;51.516;4.000;2023-07-22T12:11:22;21.60;99.90
6260;DHT22;3163;51.516;4.000;2023-07-22T12:14:10;21.60;99.90
6260;DHT22;3163;51.516;4.000;2023-07-22T12:16:38;21.60;99.90
6260;DHT22;3163;51.516;4.000;2023-07-22T12:19:05;20.80;99.90
6260;DHT22;3163;51.516;4.000;2023-07-22T12:21:31;21.30;99.90
6260;DHT22;3163;51.516;4.000;2023-07-22T12:23:57;21.60;99.90
6260;DHT22;3163;51.516;4.000;2023-07-22T12:26:23;21.60;99.90
6260;DHT22;3163;51.516;4.000;2023-07-22T12:28:49;21.70;99.90
6260;DHT22;3163;51.516;4.000;2023-07-22T12:31:14;22.30;99.90
6260;DHT22;3163;51.516;4.000;2023-07-22T12:33:40;22.30;99.90
6260;DHT22;3163;51.516;4.000;2023-07-22T12:36:06;22.40;99.90
6260;DHT22;3163;51.516;4.000;2023-07-22T12:38:32;22.90;99.90
6260;DHT22;3163;51.516;4.000;2023-07-22T12:40:57;23.00;99.90
6260;DHT22;3163;51.516;4.000;2023-07-22T12:43:23;22.70;99.90
6260;DHT22;3163;51.516;4.000;2023-07-22T12:45:49;22.70;99.90
6260;DHT22;3163;51.516;4.000;2023-07-22T12:48:16;22.60;99.90
6260;DHT22;3163;51.516;4.000;2023-07-22T12:50:43;22.20;99.90
6260;DHT22;3163;51.516;4.000;2023-07-22T12:53:08;21.70;99.90
6260;DHT22;3163;51.516;4.000;2023-07-22T12:55:34;21.60;99.90
6260;DHT22;3163;51.516;4.000;2023-07-22T12:58:00;21.70;99.90
6260;DHT22;3163;51.516;4.000;2023-07-22T13:00:25;21.90;99.90
6260;DHT22;3163;51.516;4.000;2023-07-22T13:02:51;21.90;99.90
6260;DHT22;3163;51.516;4.000;2023-07-22T13:05:17;21.40;99.90
6260;DHT22;3163;51.516;4.000;2023-07-22T13:07:43;21.40;99.90
6260;DHT22;3163;51.516;4.000;2023-07-22T13:10:09;21.50;99.90
6260;DHT22;3163;51.516;4.000;2023-07-22T13:12:37;21.30;99.90
6260;DHT22;3163;51.516;4.000;2023-07-22T13:15:04;21.20;99.90
6260;DHT22;3163;51.516;4.000;2023-07-22T13:17:30;21.50;99.90
6260;DHT22;3163;51.516;4.000;2023-07-22T13:19:56;21.70;99.90
6260;DHT22;3163;51.516;4.000;2023-07-22T13:22:22;21.70;99.90
6260;DHT22;3163;51.516;4.000;2023-07-22T13:24:48;21.90;99.90
6260;DHT22;3163;51.516;4.000;2023-07-22T13:27:13;22.00;99.90
6260;DHT22;3163;51.516;4.000;2023-07-22T13:29:39;21.90;99.90
6260;DHT22;3163;51.516;4.000;2023-07-22T13:32:05;22.10;99.90
6260;DHT22;3163;51.516;4.000;2023-07-22T13:34:31;22.20;99.90
6260;DHT22;3163;51.516;4.000;2023-07-22T13:36:57;22.20;99.90
6260;DHT22;3163;51.516;4.000;2023-07-22T13:39:23;22.20;99.90
6260;DHT22;3163;51.516;4.000;2023-07-22T13:41:48;22.20;99.90
6260;DHT22;3163;51.516;4.000;2023-07-22T13:44:14;22.50;99.90
6260;DHT22;3163;51.516;4.000;2023-07-22T13:46:40;22.00;99.90
6260;DHT22;3163;51.516;4.000;2023-07-22T13:49:06;22.00;99.90
6260;DHT22;3163;51.516;4.000;2023-07-22T13:51:31;22.00;99.90
6260;DHT22;3163;51.516;4.000;2023-07-22T13:53:57;21.70;99.90
6260;DHT22;3163;51.516;4.000;2023-07-22T13:56:24;21.90;99.90
6260;DHT22;3163;51.516;4.000;2023-07-22T13:58:50;21.30;99.90
6260;DHT22;3163;51.516;4.000;2023-07-22T14:01:16;21.10;99.90
6260;DHT22;3163;51.516;4.000;2023-07-22T14:03:41;21.40;99.90
6260;DHT22;3163;51.516;4.000;2023-07-22T14:06:07;21.60;99.90
6260;DHT22;3163;51.516;4.000;2023-07-22T14:08:34;21.70;99.90
6260;DHT22;3163;51.516;4.000;2023-07-22T14:11:00;21.60;99.90
6260;DHT22;3163;51.516;4.000;2023-07-22T14:13:25;21.90;99.90
6260;DHT22;3163;51.516;4.000;2023-07-22T14:15:51;22.00;99.90
6260;DHT22;3163;51.516;4.000;2023-07-22T14:18:17;21.80;99.90
6260;DHT22;3163;51.516;4.000;2023-07-22T14:20:46;21.70;99.90
6260;DHT22;3163;51.516;4.000;2023-07-22T14:23:12;21.90;99.90
6260;DHT22;3163;51.516;4.000;2023-07-22T14:25:38;22.20;99.90
6260;DHT22;3163;51.516;4.000;2023-07-22T14:28:04;22.30;99.90
6260;DHT22;3163;51.516;4.000;2023-07-22T14:30:29;22.50;99.90
6260;DHT22;3163;51.516;4.000;2023-07-22T14:32:55;22.50;99.90
6260;DHT22;3163;51.516;4.000;2023-07-22T14:35:21;22.20;99.90
6260;DHT22;3163;51.516;4.000;2023-07-22T14:37:47;21.80;99.90
6260;DHT22;3163;51.516;4.000;2023-07-22T14:40:13;22.10;99.90
6260;DHT22;3163;51.516;4.000;2023-07-22T14:42:39;22.40;99.90
6260;DHT22;3163;51.516;4.000;2023-07-22T14:45:06;22.40;99.90
6260;DHT22;3163;51.516;4.000;2023-07-22T14:47:32;22.50;99.90
6260;DHT22;3163;51.516;4.000;2023-07-22T14:49:57;22.20;99.90
6260;DHT22;3163;51.516;4.000;2023-07-22T14:52:23;22.30;99.90
6260;DHT22;3163;51.516;4.000;2023-07-22T14:54:49;22.50;99.90
6260;DHT22;3163;51.516;4.000;2023-07-22T14:57:19;22.20;99.90
6260;DHT22;3163;51.516;4.000;2023-07-22T14:59:45;22.20;99.90
6260;DHT22;3163;51.516;4.000;2023-07-22T15:02:12;22.20;99.90
6260;DHT22;3163;51.516;4.000;2023-07-22T15:04:37;22.30;99.90
6260;DHT22;3163;51.516;4.000;2023-07-22T15:07:03;22.80;99.90
6260;DHT22;3163;51.516;4.000;2023-07-22T15:09:29;22.60;99.90
6260;DHT22;3163;51.516;4.000;2023-07-22T15:11:54;22.60;99.90
6260;DHT22;3163;51.516;4.000;2023-07-22T15:14:20;22.70;99.90
6260;DHT22;3163;51.516;4.000;2023-07-22T15:16:45;22.70;99.90
6260;DHT22;3163;51.516;4.000;2023-07-22T15:19:11;22.60;99.90
6260;DHT22;3163;51.516;4.000;2023-07-22T15:21:37;22.60;99.90
6260;DHT22;3163;51.516;4.000;2023-07-22T15:24:04;22.30;99.90
6260;DHT22;3163;51.516;4.000;2023-07-22T15:26:30;22.30;99.90
6260;DHT22;3163;51.516;4.000;2023-07-22T15:28:55;22.00;99.90
6260;DHT22;3163;51.516;4.000;2023-07-22T15:31:21;21.80;99.90
6260;DHT22;3163;51.516;4.000;2023-07-22T15:33:47;21.60;99.90
6260;DHT22;3163;51.516;4.000;2023-07-22T15:36:13;21.50;99.90
6260;DHT22;3163;51.516;4.000;2023-07-22T15:38:40;21.60;99.90
6260;DHT22;3163;51.516;4.000;2023-07-22T15:41:06;21.80;99.90
6260;DHT22;3163;51.516;4.000;2023-07-22T15:43:32;21.40;99.90
6260;DHT22;3163;51.516;4.000;2023-07-22T15:45:59;21.50;99.90
6260;DHT22;3163;51.516;4.000;2023-07-22T15:48:26;21.50;99.90
6260;DHT22;3163;51.516;4.000;2023-07-22T15:50:52;21.70;99.90
6260;DHT22;3163;51.516;4.000;2023-07-22T15:53:20;21.70;99.90
6260;DHT22;3163;51.516;4.000;2023-07-22T15:55:46;21.30;99.90
6260;DHT22;3163;51.516;4.000;2023-07-22T15:58:13;21.20;99.90
6260;DHT22;3163;51.516;4.000;2023-07-22T16:00:39;21.50;99.90
6260;DHT22;3163;51.516;4.000;2023-07-22T16:03:05;21.40;99.90
6260;DHT22;3163;51.516;4.000;2023-07-22T16:05:30;21.00;99.90
6260;DHT22;3163;51.516;4.000;2023-07-22T16:07:56;21.00;99.90
6260;DHT22;3163;51.516;4.000;2023-07-22T16:10:22;21.00;99.90